Three Oaks, MI (49128)

5:46 PM EDT on June 24, 2017 (GMT -0400)
| | Change Station
Active Advisory: Beach Hazard Statement

Elev -9999 ft 0.00 °N, 0.00 °E | Updated 8 minutes ago

Clear
Clear
°F
Feels Like °F
N
Wind Variable Wind from North
Gusts mph

Today
High -- | Low -- °F
--% Chance of Precip.
Yesterday
High -- | Low -- °F
Precip. -- in
Pressure 30.00 in
Visibility 10.0 miles
Clouds Scattered Clouds 6500 ft
Dew Point Not available.
Humidity Not available.
Rainfall --
Snow Depth Not available.
6:12 AM 9:25 PM
New Moon, 1% visible
METAR KMGC 242135Z AUTO 33005KT 10SM SCT065 22/10 A3000 RMK AO2
Pressure 30.00 in
Visibility 10.0 miles
Clouds Scattered Clouds 6500 ft
Dew Point Not available.
Humidity Not available.
Rainfall --
Snow Depth Not available.
6:12 AM 9:25 PM
New Moon, 1% visible
METAR KMGC 242135Z AUTO 33005KT 10SM SCT065 22/10 A3000 RMK AO2

Get Your Daily Forecast Email!

Thanks for signing up!

Be on the lookout for a verification email in your inbox.

You'll start receiving severe weather alerts in your inbox..

×

10-Day Weather Forecast

Almanac

Astronomy

Jun. 24, 2017 Rise Set
Actual Time
Civil Twilight
Nautical Twilight
Astronomical Twilight
Moon
Length of Visible Light
Length of Day
Tomorrow will be .
, % of the Moon is Illuminated

Today's Extremes

State Highs State Lows

Community

WunderPhotos

Category 6

Welcome to Category 6. This is the collective home for Weather Underground's featured writeups by Dr. Jeff Masters (right), Bob Henson (left), Chris Burt, and other regular contributors.

Nearby

Air Quality

  Air Quality AQ Index Pollutant
Not available.

Snow Depth

Station Depth Elevation

Earthquake Activity

City Distance Mag. Time & Date
Minimum magnitude displayed is 2.5.

Coastal Water Temperatures

Place Temperature

Stations

Nearby Weather Stations

Station Location Temp. Windchill Dew Point Humidity Wind Precip. Elev Updated Type
                   

Watches & Warnings

Beach Hazard Statement
Issued: 3:57 PM CDT Jun. 24, 2017 – National Weather Service

... Beach hazards statement remains in effect through Sunday
evening...

* high wave action and dangerous swimming conditions expected...

* strong rip currents are occurring...

* strong structural currents expected...

* overview/potential impacts... west winds of 15 to 25 mph are
expected tonight and Sunday resulting in 3 to 5 foot waves along
the shoreline causing dangerous swimming conditions.

Precautionary/preparedness actions...

Life threatening waves and currents are expected at the beaches.
People visiting the beaches should stay out of the water.

Rip currents are powerful channels of water flowing quickly away
from the shore... which occur most often at low spots or breaks in
sandbars. Rip currents can sweep you into deeper water.

Structural currents form along piers where longshore currents and
wave action flow into the structure. Structural currents can
sweep you out into deeper water along the pier structure.